sensor_id;sensor_type;location;lat;lon;timestamp;temperature;humidity
76470;DHT22;65305;52.870;13.660;2023-04-03T00:00:52;6.80;72.80
76470;DHT22;65305;52.870;13.660;2023-04-03T00:03:19;6.80;72.90
76470;DHT22;65305;52.870;13.660;2023-04-03T00:05:46;6.80;72.80
76470;DHT22;65305;52.870;13.660;2023-04-03T00:08:12;6.80;72.90
76470;DHT22;65305;52.870;13.660;2023-04-03T00:10:39;6.80;72.90
76470;DHT22;65305;52.870;13.660;2023-04-03T00:13:06;6.80;72.90
76470;DHT22;65305;52.870;13.660;2023-04-03T00:15:33;6.80;72.80
76470;DHT22;65305;52.870;13.660;2023-04-03T00:17:59;6.80;72.90
76470;DHT22;65305;52.870;13.660;2023-04-03T00:20:26;6.80;72.80
76470;DHT22;65305;52.870;13.660;2023-04-03T00:22:53;6.80;72.80
76470;DHT22;65305;52.870;13.660;2023-04-03T00:25:20;6.80;72.90
76470;DHT22;65305;52.870;13.660;2023-04-03T00:27:47;6.80;72.90
76470;DHT22;65305;52.870;13.660;2023-04-03T00:30:14;6.80;72.90
76470;DHT22;65305;52.870;13.660;2023-04-03T00:32:41;6.80;72.90
76470;DHT22;65305;52.870;13.660;2023-04-03T00:35:07;6.80;72.90
76470;DHT22;65305;52.870;13.660;2023-04-03T00:37:34;6.70;72.90
76470;DHT22;65305;52.870;13.660;2023-04-03T00:40:00;6.80;72.90
76470;DHT22;65305;52.870;13.660;2023-04-03T00:42:27;6.80;72.90
76470;DHT22;65305;52.870;13.660;2023-04-03T00:47:23;6.70;72.90
76470;DHT22;65305;52.870;13.660;2023-04-03T00:49:50;6.70;72.90
76470;DHT22;65305;52.870;13.660;2023-04-03T00:52:19;6.70;72.90
76470;DHT22;65305;52.870;13.660;2023-04-03T00:54:47;6.70;72.90
76470;DHT22;65305;52.870;13.660;2023-04-03T00:57:15;6.70;72.90
76470;DHT22;65305;52.870;13.660;2023-04-03T00:59:43;6.70;72.90
76470;DHT22;65305;52.870;13.660;2023-04-03T01:02:13;6.70;72.90
76470;DHT22;65305;52.870;13.660;2023-04-03T01:04:41;6.70;72.90
76470;DHT22;65305;52.870;13.660;2023-04-03T01:07:12;6.70;72.90
76470;DHT22;65305;52.870;13.660;2023-04-03T01:09:41;6.70;72.90
76470;DHT22;65305;52.870;13.660;2023-04-03T01:12:25;6.70;72.90
76470;DHT22;65305;52.870;13.660;2023-04-03T01:14:53;6.70;72.90
76470;DHT22;65305;52.870;13.660;2023-04-03T01:17:40;6.70;72.90
76470;DHT22;65305;52.870;13.660;2023-04-03T01:20:30;6.70;72.90
76470;DHT22;65305;52.870;13.660;2023-04-03T01:23:08;6.70;72.90
76470;DHT22;65305;52.870;13.660;2023-04-03T01:25:40;6.70;73.00
76470;DHT22;65305;52.870;13.660;2023-04-03T01:28:07;6.70;72.90
76470;DHT22;65305;52.870;13.660;2023-04-03T01:30:35;6.60;72.90
76470;DHT22;65305;52.870;13.660;2023-04-03T01:33:02;6.60;72.90
76470;DHT22;65305;52.870;13.660;2023-04-03T01:35:28;6.70;72.90
76470;DHT22;65305;52.870;13.660;2023-04-03T01:37:55;7.00;72.30
76470;DHT22;65305;52.870;13.660;2023-04-03T01:40:21;7.20;71.70
76470;DHT22;65305;52.870;13.660;2023-04-03T01:42:48;7.50;71.10
76470;DHT22;65305;52.870;13.660;2023-04-03T01:45:14;7.80;70.70
76470;DHT22;65305;52.870;13.660;2023-04-03T01:47:41;8.00;70.50
76470;DHT22;65305;52.870;13.660;2023-04-03T01:50:07;8.10;70.40
76470;DHT22;65305;52.870;13.660;2023-04-03T01:52:34;8.20;70.30
76470;DHT22;65305;52.870;13.660;2023-04-03T01:55:01;8.40;70.20
76470;DHT22;65305;52.870;13.660;2023-04-03T01:57:27;8.50;70.30
76470;DHT22;65305;52.870;13.660;2023-04-03T01:59:54;8.60;70.20
76470;DHT22;65305;52.870;13.660;2023-04-03T02:02:21;8.70;70.10
76470;DHT22;65305;52.870;13.660;2023-04-03T02:04:47;8.80;70.20
76470;DHT22;65305;52.870;13.660;2023-04-03T02:07:14;9.00;70.20
76470;DHT22;65305;52.870;13.660;2023-04-03T02:09:41;9.00;70.20
76470;DHT22;65305;52.870;13.660;2023-04-03T02:12:07;9.20;70.20
76470;DHT22;65305;52.870;13.660;2023-04-03T02:14:34;9.20;70.10
76470;DHT22;65305;52.870;13.660;2023-04-03T02:17:01;9.30;70.20
76470;DHT22;65305;52.870;13.660;2023-04-03T02:19:31;9.40;70.20
76470;DHT22;65305;52.870;13.660;2023-04-03T02:21:57;9.50;70.10
76470;DHT22;65305;52.870;13.660;2023-04-03T02:24:24;9.60;70.10
76470;DHT22;65305;52.870;13.660;2023-04-03T02:26:51;9.70;70.10
76470;DHT22;65305;52.870;13.660;2023-04-03T02:29:18;9.80;70.00
76470;DHT22;65305;52.870;13.660;2023-04-03T02:31:44;9.80;70.00
76470;DHT22;65305;52.870;13.660;2023-04-03T02:34:11;10.00;69.90
76470;DHT22;65305;52.870;13.660;2023-04-03T02:36:37;10.00;69.80
76470;DHT22;65305;52.870;13.660;2023-04-03T02:39:04;10.10;69.80
76470;DHT22;65305;52.870;13.660;2023-04-03T02:41:31;10.20;69.80
76470;DHT22;65305;52.870;13.660;2023-04-03T02:44:04;10.30;69.70
76470;DHT22;65305;52.870;13.660;2023-04-03T02:46:31;10.40;69.70
76470;DHT22;65305;52.870;13.660;2023-04-03T02:48:57;10.40;69.50
76470;DHT22;65305;52.870;13.660;2023-04-03T02:51:24;10.50;69.50
76470;DHT22;65305;52.870;13.660;2023-04-03T02:53:50;10.60;69.40
76470;DHT22;65305;52.870;13.660;2023-04-03T02:56:17;10.70;69.30
76470;DHT22;65305;52.870;13.660;2023-04-03T02:58:45;10.80;69.30
76470;DHT22;65305;52.870;13.660;2023-04-03T03:01:11;10.80;69.30
76470;DHT22;65305;52.870;13.660;2023-04-03T03:03:38;10.90;69.10
76470;DHT22;65305;52.870;13.660;2023-04-03T03:06:11;10.90;68.70
76470;DHT22;65305;52.870;13.660;2023-04-03T03:08:37;10.60;69.20
76470;DHT22;65305;52.870;13.660;2023-04-03T03:11:04;10.30;70.20
76470;DHT22;65305;52.870;13.660;2023-04-03T03:13:31;10.00;70.60
76470;DHT22;65305;52.870;13.660;2023-04-03T03:15:57;9.80;69.70
76470;DHT22;65305;52.870;13.660;2023-04-03T03:18:24;9.70;69.00
76470;DHT22;65305;52.870;13.660;2023-04-03T03:20:54;9.60;68.80
76470;DHT22;65305;52.870;13.660;2023-04-03T03:23:21;9.50;68.40
76470;DHT22;65305;52.870;13.660;2023-04-03T03:25:48;9.40;68.40
76470;DHT22;65305;52.870;13.660;2023-04-03T03:28:15;9.40;67.90
76470;DHT22;65305;52.870;13.660;2023-04-03T03:30:41;9.40;68.50
76470;DHT22;65305;52.870;13.660;2023-04-03T03:33:08;9.30;68.40
76470;DHT22;65305;52.870;13.660;2023-04-03T03:35:34;9.20;68.40
76470;DHT22;65305;52.870;13.660;2023-04-03T03:38:01;9.20;68.30
76470;DHT22;65305;52.870;13.660;2023-04-03T03:40:27;9.20;68.00
76470;DHT22;65305;52.870;13.660;2023-04-03T03:42:54;9.10;67.20
76470;DHT22;65305;52.870;13.660;2023-04-03T03:45:20;9.00;67.20
76470;DHT22;65305;52.870;13.660;2023-04-03T03:47:47;9.00;67.10
76470;DHT22;65305;52.870;13.660;2023-04-03T03:50:13;9.00;66.90
76470;DHT22;65305;52.870;13.660;2023-04-03T03:52:40;9.00;66.70
76470;DHT22;65305;52.870;13.660;2023-04-03T03:55:06;9.00;66.30
76470;DHT22;65305;52.870;13.660;2023-04-03T03:57:33;9.00;65.90
76470;DHT22;65305;52.870;13.660;2023-04-03T04:00:00;8.90;65.60
76470;DHT22;65305;52.870;13.660;2023-04-03T04:02:26;8.90;65.50
76470;DHT22;65305;52.870;13.660;2023-04-03T04:04:53;8.90;65.50
76470;DHT22;65305;52.870;13.660;2023-04-03T04:07:20;8.90;65.10
76470;DHT22;65305;52.870;13.660;2023-04-03T04:09:46;8.80;65.20
76470;DHT22;65305;52.870;13.660;2023-04-03T04:12:13;8.80;65.10
76470;DHT22;65305;52.870;13.660;2023-04-03T04:14:39;8.80;64.80
76470;DHT22;65305;52.870;13.660;2023-04-03T04:17:05;8.80;64.60
76470;DHT22;65305;52.870;13.660;2023-04-03T04:19:32;8.80;64.40
76470;DHT22;65305;52.870;13.660;2023-04-03T04:21:59;8.70;64.60
76470;DHT22;65305;52.870;13.660;2023-04-03T04:24:25;8.60;64.60
76470;DHT22;65305;52.870;13.660;2023-04-03T04:26:52;8.60;64.60
76470;DHT22;65305;52.870;13.660;2023-04-03T04:29:18;8.60;64.40
76470;DHT22;65305;52.870;13.660;2023-04-03T04:31:45;8.60;64.70
76470;DHT22;65305;52.870;13.660;2023-04-03T04:34:12;8.60;64.30
76470;DHT22;65305;52.870;13.660;2023-04-03T04:36:41;8.60;64.60
76470;DHT22;65305;52.870;13.660;2023-04-03T04:39:08;8.60;65.00
76470;DHT22;65305;52.870;13.660;2023-04-03T04:41:34;8.60;64.60
76470;DHT22;65305;52.870;13.660;2023-04-03T04:44:01;8.50;64.90
76470;DHT22;65305;52.870;13.660;2023-04-03T04:46:27;8.50;65.10
76470;DHT22;65305;52.870;13.660;2023-04-03T04:48:54;8.50;65.00
76470;DHT22;65305;52.870;13.660;2023-04-03T04:51:20;8.50;65.20
76470;DHT22;65305;52.870;13.660;2023-04-03T04:53:47;8.50;65.00
76470;DHT22;65305;52.870;13.660;2023-04-03T04:56:13;8.50;65.10
76470;DHT22;65305;52.870;13.660;2023-04-03T04:58:40;8.40;65.30
76470;DHT22;65305;52.870;13.660;2023-04-03T05:01:07;8.40;65.10
76470;DHT22;65305;52.870;13.660;2023-04-03T05:03:34;8.40;64.70
76470;DHT22;65305;52.870;13.660;2023-04-03T05:06:00;8.40;64.90
76470;DHT22;65305;52.870;13.660;2023-04-03T05:08:27;8.40;64.60
76470;DHT22;65305;52.870;13.660;2023-04-03T05:10:53;8.40;64.90
76470;DHT22;65305;52.870;13.660;2023-04-03T05:13:20;8.40;64.70
76470;DHT22;65305;52.870;13.660;2023-04-03T05:15:46;8.40;64.70
76470;DHT22;65305;52.870;13.660;2023-04-03T05:18:13;8.30;64.80
76470;DHT22;65305;52.870;13.660;2023-04-03T05:20:40;8.30;64.90
76470;DHT22;65305;52.870;13.660;2023-04-03T05:23:06;8.30;64.90
76470;DHT22;65305;52.870;13.660;2023-04-03T05:25:32;8.30;64.80
76470;DHT22;65305;52.870;13.660;2023-04-03T05:27:59;8.30;64.70
76470;DHT22;65305;52.870;13.660;2023-04-03T05:30:25;8.20;65.50
76470;DHT22;65305;52.870;13.660;2023-04-03T05:32:52;8.20;65.00
76470;DHT22;65305;52.870;13.660;2023-04-03T05:35:18;8.20;65.10
76470;DHT22;65305;52.870;13.660;2023-04-03T05:37:45;8.20;65.60
76470;DHT22;65305;52.870;13.660;2023-04-03T05:40:11;8.20;65.10
76470;DHT22;65305;52.870;13.660;2023-04-03T05:42:38;8.20;65.50
76470;DHT22;65305;52.870;13.660;2023-04-03T05:45:05;8.20;65.40
76470;DHT22;65305;52.870;13.660;2023-04-03T05:47:32;8.10;65.40
76470;DHT22;65305;52.870;13.660;2023-04-03T05:49:58;8.10;65.30
76470;DHT22;65305;52.870;13.660;2023-04-03T05:52:43;8.10;65.20
76470;DHT22;65305;52.870;13.660;2023-04-03T05:55:10;8.10;65.40
76470;DHT22;65305;52.870;13.660;2023-04-03T05:57:37;8.10;65.30
76470;DHT22;65305;52.870;13.660;2023-04-03T06:00:06;8.10;65.70
76470;DHT22;65305;52.870;13.660;2023-04-03T06:02:35;8.10;65.50
76470;DHT22;65305;52.870;13.660;2023-04-03T06:05:01;8.00;65.50
76470;DHT22;65305;52.870;13.660;2023-04-03T06:07:28;8.00;66.00
76470;DHT22;65305;52.870;13.660;2023-04-03T06:09:55;8.00;66.20
76470;DHT22;65305;52.870;13.660;2023-04-03T06:12:21;8.00;65.60
76470;DHT22;65305;52.870;13.660;2023-04-03T06:14:48;8.00;66.30
76470;DHT22;65305;52.870;13.660;2023-04-03T06:17:15;8.00;65.80
76470;DHT22;65305;52.870;13.660;2023-04-03T06:19:42;8.00;66.20
76470;DHT22;65305;52.870;13.660;2023-04-03T06:22:09;8.00;66.40
76470;DHT22;65305;52.870;13.660;2023-04-03T06:24:35;8.00;66.60
76470;DHT22;65305;52.870;13.660;2023-04-03T06:27:03;8.00;66.90
76470;DHT22;65305;52.870;13.660;2023-04-03T06:29:29;8.00;66.30
76470;DHT22;65305;52.870;13.660;2023-04-03T06:31:56;8.00;66.60
76470;DHT22;65305;52.870;13.660;2023-04-03T06:34:23;7.90;66.70
76470;DHT22;65305;52.870;13.660;2023-04-03T06:36:49;7.90;66.80
76470;DHT22;65305;52.870;13.660;2023-04-03T06:39:17;7.90;66.90
76470;DHT22;65305;52.870;13.660;2023-04-03T06:41:46;7.80;67.00
76470;DHT22;65305;52.870;13.660;2023-04-03T06:44:12;7.80;66.80
76470;DHT22;65305;52.870;13.660;2023-04-03T06:46:42;7.80;67.00
76470;DHT22;65305;52.870;13.660;2023-04-03T06:49:09;7.80;67.10
76470;DHT22;65305;52.870;13.660;2023-04-03T06:51:36;7.80;67.10
76470;DHT22;65305;52.870;13.660;2023-04-03T06:54:03;7.80;67.10
76470;DHT22;65305;52.870;13.660;2023-04-03T06:56:29;7.80;67.00
76470;DHT22;65305;52.870;13.660;2023-04-03T06:58:56;7.80;67.40
76470;DHT22;65305;52.870;13.660;2023-04-03T07:01:27;7.80;67.10
76470;DHT22;65305;52.870;13.660;2023-04-03T07:03:54;7.80;67.40
76470;DHT22;65305;52.870;13.660;2023-04-03T07:06:20;7.80;67.70
76470;DHT22;65305;52.870;13.660;2023-04-03T07:08:47;7.80;67.80
76470;DHT22;65305;52.870;13.660;2023-04-03T07:11:17;7.80;68.20
76470;DHT22;65305;52.870;13.660;2023-04-03T07:13:44;7.80;67.90
76470;DHT22;65305;52.870;13.660;2023-04-03T07:16:10;7.80;68.50
76470;DHT22;65305;52.870;13.660;2023-04-03T07:18:37;7.80;68.20
76470;DHT22;65305;52.870;13.660;2023-04-03T07:21:04;7.80;68.20
76470;DHT22;65305;52.870;13.660;2023-04-03T07:23:30;7.80;68.20
76470;DHT22;65305;52.870;13.660;2023-04-03T07:25:57;7.70;68.40
76470;DHT22;65305;52.870;13.660;2023-04-03T07:28:23;7.70;68.50
76470;DHT22;65305;52.870;13.660;2023-04-03T07:30:51;7.70;68.50
76470;DHT22;65305;52.870;13.660;2023-04-03T07:33:18;7.70;68.70
76470;DHT22;65305;52.870;13.660;2023-04-03T07:35:45;7.70;68.70
76470;DHT22;65305;52.870;13.660;2023-04-03T07:38:12;7.70;68.90
76470;DHT22;65305;52.870;13.660;2023-04-03T07:40:38;7.60;68.50
76470;DHT22;65305;52.870;13.660;2023-04-03T07:43:05;7.60;68.90
76470;DHT22;65305;52.870;13.660;2023-04-03T07:45:33;7.60;68.70
76470;DHT22;65305;52.870;13.660;2023-04-03T07:48:00;7.60;68.70
76470;DHT22;65305;52.870;13.660;2023-04-03T07:50:27;7.60;68.70
76470;DHT22;65305;52.870;13.660;2023-04-03T07:52:56;7.60;68.80
76470;DHT22;65305;52.870;13.660;2023-04-03T07:55:23;7.60;69.00
76470;DHT22;65305;52.870;13.660;2023-04-03T07:57:50;7.60;69.00
76470;DHT22;65305;52.870;13.660;2023-04-03T08:00:17;7.60;68.60
76470;DHT22;65305;52.870;13.660;2023-04-03T08:02:47;7.50;68.80
76470;DHT22;65305;52.870;13.660;2023-04-03T08:05:18;7.50;68.80
76470;DHT22;65305;52.870;13.660;2023-04-03T08:07:44;7.50;68.60
76470;DHT22;65305;52.870;13.660;2023-04-03T08:10:11;7.50;68.90
76470;DHT22;65305;52.870;13.660;2023-04-03T08:12:38;7.50;68.90
76470;DHT22;65305;52.870;13.660;2023-04-03T08:15:04;7.50;68.90
76470;DHT22;65305;52.870;13.660;2023-04-03T08:17:34;7.50;68.90
76470;DHT22;65305;52.870;13.660;2023-04-03T08:20:10;7.50;68.90
76470;DHT22;65305;52.870;13.660;2023-04-03T08:22:51;7.50;68.80
76470;DHT22;65305;52.870;13.660;2023-04-03T08:25:30;7.50;68.70
76470;DHT22;65305;52.870;13.660;2023-04-03T08:28:03;7.50;68.70
76470;DHT22;65305;52.870;13.660;2023-04-03T08:30:29;7.50;68.50
76470;DHT22;65305;52.870;13.660;2023-04-03T08:32:59;7.50;68.80
76470;DHT22;65305;52.870;13.660;2023-04-03T08:35:27;7.50;68.80
76470;DHT22;65305;52.870;13.660;2023-04-03T08:37:53;7.50;68.70
76470;DHT22;65305;52.870;13.660;2023-04-03T08:40:20;7.50;68.70
76470;DHT22;65305;52.870;13.660;2023-04-03T08:48:19;7.40;68.60
76470;DHT22;65305;52.870;13.660;2023-04-03T08:50:50;7.40;68.50
76470;DHT22;65305;52.870;13.660;2023-04-03T08:53:23;7.40;68.50
76470;DHT22;65305;52.870;13.660;2023-04-03T08:55:54;7.40;68.50
76470;DHT22;65305;52.870;13.660;2023-04-03T08:58:25;7.40;68.50
76470;DHT22;65305;52.870;13.660;2023-04-03T09:01:05;7.40;68.60
76470;DHT22;65305;52.870;13.660;2023-04-03T09:03:38;7.40;68.40
76470;DHT22;65305;52.870;13.660;2023-04-03T09:12:12;7.30;68.30
76470;DHT22;65305;52.870;13.660;2023-04-03T09:14:48;7.30;68.50
76470;DHT22;65305;52.870;13.660;2023-04-03T09:22:49;7.30;68.20
76470;DHT22;65305;52.870;13.660;2023-04-03T09:25:23;7.30;68.20
76470;DHT22;65305;52.870;13.660;2023-04-03T09:27:52;7.20;68.50
76470;DHT22;65305;52.870;13.660;2023-04-03T09:30:20;7.20;68.60
76470;DHT22;65305;52.870;13.660;2023-04-03T09:32:48;7.20;68.50
76470;DHT22;65305;52.870;13.660;2023-04-03T09:37:48;7.20;68.30
76470;DHT22;65305;52.870;13.660;2023-04-03T09:40:37;7.20;68.60
76470;DHT22;65305;52.870;13.660;2023-04-03T09:43:24;7.20;68.50
76470;DHT22;65305;52.870;13.660;2023-04-03T09:45:51;7.20;68.40
76470;DHT22;65305;52.870;13.660;2023-04-03T09:48:19;7.20;68.40
76470;DHT22;65305;52.870;13.660;2023-04-03T09:55:57;7.20;68.40
76470;DHT22;65305;52.870;13.660;2023-04-03T09:58:28;7.20;68.40
76470;DHT22;65305;52.870;13.660;2023-04-03T10:00:57;7.20;68.40
76470;DHT22;65305;52.870;13.660;2023-04-03T10:03:25;7.20;68.50
76470;DHT22;65305;52.870;13.660;2023-04-03T10:05:57;7.20;68.30
76470;DHT22;65305;52.870;13.660;2023-04-03T10:08:26;7.20;68.10
76470;DHT22;65305;52.870;13.660;2023-04-03T10:11:09;7.20;68.30
76470;DHT22;65305;52.870;13.660;2023-04-03T10:13:52;7.20;68.20
76470;DHT22;65305;52.870;13.660;2023-04-03T10:16:35;7.20;68.30
76470;DHT22;65305;52.870;13.660;2023-04-03T10:19:14;7.20;68.30
76470;DHT22;65305;52.870;13.660;2023-04-03T10:24:23;7.10;68.30
76470;DHT22;65305;52.870;13.660;2023-04-03T10:27:10;7.10;68.30
76470;DHT22;65305;52.870;13.660;2023-04-03T10:29:42;7.10;68.20
76470;DHT22;65305;52.870;13.660;2023-04-03T10:35:08;7.10;68.20
76470;DHT22;65305;52.870;13.660;2023-04-03T10:45:49;7.00;68.20
76470;DHT22;65305;52.870;13.660;2023-04-03T10:48:31;7.00;68.20
76470;DHT22;65305;52.870;13.660;2023-04-03T10:51:03;7.00;68.20
76470;DHT22;65305;52.870;13.660;2023-04-03T10:58:44;7.00;68.20
76470;DHT22;65305;52.870;13.660;2023-04-03T11:01:16;7.00;68.00
76470;DHT22;65305;52.870;13.660;2023-04-03T11:03:47;7.00;68.20
76470;DHT22;65305;52.870;13.660;2023-04-03T11:06:17;7.00;68.20
76470;DHT22;65305;52.870;13.660;2023-04-03T11:09:00;7.00;68.20
76470;DHT22;65305;52.870;13.660;2023-04-03T11:11:33;7.00;68.20
76470;DHT22;65305;52.870;13.660;2023-04-03T11:14:11;7.00;68.20
76470;DHT22;65305;52.870;13.660;2023-04-03T11:16:43;7.00;68.30
76470;DHT22;65305;52.870;13.660;2023-04-03T11:19:20;7.00;68.40
76470;DHT22;65305;52.870;13.660;2023-04-03T11:22:10;7.00;68.20
76470;DHT22;65305;52.870;13.660;2023-04-03T11:24:41;7.00;68.20
76470;DHT22;65305;52.870;13.660;2023-04-03T11:27:11;7.00;68.20
76470;DHT22;65305;52.870;13.660;2023-04-03T11:29:42;7.00;68.30
76470;DHT22;65305;52.870;13.660;2023-04-03T11:32:21;7.00;68.40
76470;DHT22;65305;52.870;13.660;2023-04-03T11:34:54;6.90;68.40
76470;DHT22;65305;52.870;13.660;2023-04-03T11:39:59;6.90;67.90
76470;DHT22;65305;52.870;13.660;2023-04-03T11:42:32;6.90;68.20
76470;DHT22;65305;52.870;13.660;2023-04-03T11:45:23;6.90;68.30
76470;DHT22;65305;52.870;13.660;2023-04-03T11:47:53;6.90;68.20
76470;DHT22;65305;52.870;13.660;2023-04-03T11:58:03;6.90;68.30
76470;DHT22;65305;52.870;13.660;2023-04-03T12:13:39;6.90;68.30
76470;DHT22;65305;52.870;13.660;2023-04-03T12:16:06;6.90;68.30
76470;DHT22;65305;52.870;13.660;2023-04-03T12:21:06;6.90;68.30
76470;DHT22;65305;52.870;13.660;2023-04-03T12:23:34;6.90;68.20
76470;DHT22;65305;52.870;13.660;2023-04-03T12:26:04;6.90;68.30
76470;DHT22;65305;52.870;13.660;2023-04-03T12:28:36;6.90;68.20
76470;DHT22;65305;52.870;13.660;2023-04-03T12:31:03;6.80;68.30
76470;DHT22;65305;52.870;13.660;2023-04-03T12:33:37;6.80;68.10
76470;DHT22;65305;52.870;13.660;2023-04-03T12:36:11;6.80;68.30
76470;DHT22;65305;52.870;13.660;2023-04-03T12:41:24;6.80;68.30
76470;DHT22;65305;52.870;13.660;2023-04-03T12:46:36;6.80;68.40
76470;DHT22;65305;52.870;13.660;2023-04-03T12:51:49;6.80;68.20
76470;DHT22;65305;52.870;13.660;2023-04-03T12:54:19;6.80;68.30
76470;DHT22;65305;52.870;13.660;2023-04-03T12:56:49;6.80;68.30
76470;DHT22;65305;52.870;13.660;2023-04-03T12:59:18;6.80;68.30
76470;DHT22;65305;52.870;13.660;2023-04-03T13:01:58;6.80;68.30
76470;DHT22;65305;52.870;13.660;2023-04-03T13:04:29;6.80;68.20
76470;DHT22;65305;52.870;13.660;2023-04-03T13:06:56;6.80;68.30
76470;DHT22;65305;52.870;13.660;2023-04-03T13:09:27;6.80;68.30
76470;DHT22;65305;52.870;13.660;2023-04-03T13:11:57;6.80;68.30
76470;DHT22;65305;52.870;13.660;2023-04-03T13:14:27;6.80;68.40
76470;DHT22;65305;52.870;13.660;2023-04-03T13:19:25;6.70;68.40
76470;DHT22;65305;52.870;13.660;2023-04-03T13:21:56;6.70;67.90
76470;DHT22;65305;52.870;13.660;2023-04-03T13:24:24;6.70;67.70
76470;DHT22;65305;52.870;13.660;2023-04-03T13:26:51;6.70;68.20
76470;DHT22;65305;52.870;13.660;2023-04-03T13:29:23;6.70;68.30
76470;DHT22;65305;52.870;13.660;2023-04-03T13:31:52;6.70;68.20
76470;DHT22;65305;52.870;13.660;2023-04-03T13:34:19;6.70;68.30
76470;DHT22;65305;52.870;13.660;2023-04-03T13:41:48;6.70;67.80
76470;DHT22;65305;52.870;13.660;2023-04-03T13:44:16;6.70;67.90
76470;DHT22;65305;52.870;13.660;2023-04-03T13:46:43;6.70;67.80
76470;DHT22;65305;52.870;13.660;2023-04-03T13:51:50;6.70;68.20
76470;DHT22;65305;52.870;13.660;2023-04-03T13:54:22;6.70;67.90
76470;DHT22;65305;52.870;13.660;2023-04-03T13:56:53;6.70;68.20
76470;DHT22;65305;52.870;13.660;2023-04-03T13:59:27;6.70;68.20
76470;DHT22;65305;52.870;13.660;2023-04-03T14:04:25;6.70;68.30
76470;DHT22;65305;52.870;13.660;2023-04-03T14:06:51;6.70;68.30
76470;DHT22;65305;52.870;13.660;2023-04-03T14:09:18;6.70;68.30
76470;DHT22;65305;52.870;13.660;2023-04-03T14:11:46;6.70;68.40
76470;DHT22;65305;52.870;13.660;2023-04-03T14:14:14;6.70;68.40
76470;DHT22;65305;52.870;13.660;2023-04-03T14:16:43;6.70;68.40
76470;DHT22;65305;52.870;13.660;2023-04-03T14:19:20;6.60;68.30
76470;DHT22;65305;52.870;13.660;2023-04-03T14:21:47;6.60;68.50
76470;DHT22;65305;52.870;13.660;2023-04-03T14:24:14;6.70;68.50
76470;DHT22;65305;52.870;13.660;2023-04-03T14:26:41;6.60;68.30
76470;DHT22;65305;52.870;13.660;2023-04-03T14:29:09;6.70;68.40
76470;DHT22;65305;52.870;13.660;2023-04-03T14:31:36;6.60;68.30
76470;DHT22;65305;52.870;13.660;2023-04-03T14:34:03;6.60;68.40
76470;DHT22;65305;52.870;13.660;2023-04-03T14:36:29;6.60;68.20
76470;DHT22;65305;52.870;13.660;2023-04-03T14:38:56;6.60;68.30
76470;DHT22;65305;52.870;13.660;2023-04-03T14:41:24;6.60;68.20
76470;DHT22;65305;52.870;13.660;2023-04-03T14:43:50;6.60;68.30
76470;DHT22;65305;52.870;13.660;2023-04-03T14:46:32;6.60;68.10
76470;DHT22;65305;52.870;13.660;2023-04-03T14:48:59;6.60;68.40
76470;DHT22;65305;52.870;13.660;2023-04-03T14:51:34;6.60;68.40
76470;DHT22;65305;52.870;13.660;2023-04-03T14:54:00;6.60;68.10
76470;DHT22;65305;52.870;13.660;2023-04-03T14:56:28;6.60;68.10
76470;DHT22;65305;52.870;13.660;2023-04-03T14:58:59;6.60;68.20
76470;DHT22;65305;52.870;13.660;2023-04-03T15:01:26;6.60;68.40
76470;DHT22;65305;52.870;13.660;2023-04-03T15:03:52;6.60;68.00
76470;DHT22;65305;52.870;13.660;2023-04-03T15:06:19;6.60;68.00
76470;DHT22;65305;52.870;13.660;2023-04-03T15:08:46;6.60;68.00
76470;DHT22;65305;52.870;13.660;2023-04-03T15:11:13;6.60;68.30
76470;DHT22;65305;52.870;13.660;2023-04-03T15:13:40;6.60;68.00
76470;DHT22;65305;52.870;13.660;2023-04-03T15:16:16;6.60;68.10
76470;DHT22;65305;52.870;13.660;2023-04-03T15:18:44;6.60;67.80
76470;DHT22;65305;52.870;13.660;2023-04-03T15:21:10;6.60;68.10
76470;DHT22;65305;52.870;13.660;2023-04-03T15:23:37;6.50;67.90
76470;DHT22;65305;52.870;13.660;2023-04-03T15:26:04;6.50;68.30
76470;DHT22;65305;52.870;13.660;2023-04-03T15:28:41;6.50;68.20
76470;DHT22;65305;52.870;13.660;2023-04-03T15:31:08;6.50;68.20
76470;DHT22;65305;52.870;13.660;2023-04-03T15:33:35;6.50;68.20
76470;DHT22;65305;52.870;13.660;2023-04-03T15:36:02;6.50;68.30
76470;DHT22;65305;52.870;13.660;2023-04-03T15:38:29;6.50;68.20
76470;DHT22;65305;52.870;13.660;2023-04-03T15:40:55;6.50;68.30
76470;DHT22;65305;52.870;13.660;2023-04-03T15:43:22;6.50;68.40
76470;DHT22;65305;52.870;13.660;2023-04-03T15:45:48;6.50;68.40
76470;DHT22;65305;52.870;13.660;2023-04-03T15:48:15;6.50;68.40
76470;DHT22;65305;52.870;13.660;2023-04-03T15:50:42;6.50;68.50
76470;DHT22;65305;52.870;13.660;2023-04-03T15:53:09;6.50;68.30
76470;DHT22;65305;52.870;13.660;2023-04-03T15:55:36;6.50;68.40
76470;DHT22;65305;52.870;13.660;2023-04-03T15:58:03;6.50;68.30
76470;DHT22;65305;52.870;13.660;2023-04-03T16:00:30;6.50;68.50
76470;DHT22;65305;52.870;13.660;2023-04-03T16:03:06;6.50;68.40
76470;DHT22;65305;52.870;13.660;2023-04-03T16:05:32;6.50;68.40
76470;DHT22;65305;52.870;13.660;2023-04-03T16:07:59;6.50;68.50
76470;DHT22;65305;52.870;13.660;2023-04-03T16:10:26;6.50;68.40
76470;DHT22;65305;52.870;13.660;2023-04-03T16:12:53;6.50;68.30
76470;DHT22;65305;52.870;13.660;2023-04-03T16:15:19;6.50;68.50
76470;DHT22;65305;52.870;13.660;2023-04-03T16:17:46;6.50;68.20
76470;DHT22;65305;52.870;13.660;2023-04-03T16:20:14;6.50;68.50
76470;DHT22;65305;52.870;13.660;2023-04-03T16:22:40;6.50;68.50
76470;DHT22;65305;52.870;13.660;2023-04-03T16:25:07;6.50;68.40
76470;DHT22;65305;52.870;13.660;2023-04-03T16:27:35;6.40;68.50
76470;DHT22;65305;52.870;13.660;2023-04-03T16:30:01;6.40;68.50
76470;DHT22;65305;52.870;13.660;2023-04-03T16:32:29;6.40;68.50
76470;DHT22;65305;52.870;13.660;2023-04-03T16:34:56;6.50;68.40
76470;DHT22;65305;52.870;13.660;2023-04-03T16:37:23;6.40;68.40
76470;DHT22;65305;52.870;13.660;2023-04-03T16:39:49;6.40;68.60
76470;DHT22;65305;52.870;13.660;2023-04-03T16:42:16;6.40;68.70
76470;DHT22;65305;52.870;13.660;2023-04-03T16:44:42;6.40;68.60
76470;DHT22;65305;52.870;13.660;2023-04-03T16:47:09;6.40;68.60
76470;DHT22;65305;52.870;13.660;2023-04-03T16:49:36;6.40;68.60
76470;DHT22;65305;52.870;13.660;2023-04-03T16:52:03;6.40;68.70
76470;DHT22;65305;52.870;13.660;2023-04-03T16:54:30;6.40;68.70
76470;DHT22;65305;52.870;13.660;2023-04-03T16:56:57;6.40;68.60
76470;DHT22;65305;52.870;13.660;2023-04-03T16:59:24;6.40;68.60
76470;DHT22;65305;52.870;13.660;2023-04-03T17:01:50;6.40;68.60
76470;DHT22;65305;52.870;13.660;2023-04-03T17:04:17;6.40;68.60
76470;DHT22;65305;52.870;13.660;2023-04-03T17:06:43;6.40;68.70
76470;DHT22;65305;52.870;13.660;2023-04-03T17:09:10;6.40;68.60
76470;DHT22;65305;52.870;13.660;2023-04-03T17:11:37;6.40;68.70